createdAt,value
2023-05-10T00:05:06.513Z,99695
2023-05-10T00:10:58.498Z,99695
2023-05-10T00:16:50.614Z,99698
2023-05-10T00:22:42.919Z,99698
2023-05-10T00:28:35.355Z,99693
2023-05-10T00:34:27.624Z,99692
2023-05-10T00:40:19.657Z,99693
2023-05-10T00:46:11.195Z,99683
2023-05-10T00:52:03.396Z,99695
2023-05-10T00:57:55.641Z,99697
2023-05-10T01:03:48.209Z,99695
2023-05-10T01:09:39.889Z,99696
2023-05-10T01:15:32.671Z,99689
2023-05-10T01:21:25.202Z,99698
2023-05-10T01:27:17.180Z,99702
2023-05-10T01:33:09.545Z,99691
2023-05-10T01:39:02.031Z,99693
2023-05-10T01:44:54.614Z,99702
2023-05-10T01:50:47.248Z,99694
2023-05-10T01:56:39.572Z,99697
2023-05-10T02:02:32.335Z,99699
2023-05-10T02:08:24.249Z,99705
2023-05-10T02:14:16.476Z,99711
2023-05-10T02:20:09.084Z,99716
2023-05-10T02:26:01.443Z,99726
2023-05-10T02:31:53.445Z,99726
2023-05-10T02:37:45.869Z,99736
2023-05-10T02:43:38.358Z,99730
2023-05-10T02:49:30.963Z,99730
2023-05-10T02:55:23.422Z,99736
2023-05-10T03:01:15.535Z,99724
2023-05-10T03:07:08.192Z,99724
2023-05-10T03:13:00.882Z,99725
2023-05-10T03:18:53.688Z,99731
2023-05-10T03:24:45.930Z,99735
2023-05-10T03:30:38.543Z,99730
2023-05-10T03:36:28.907Z,99742
2023-05-10T03:42:19.205Z,99746
2023-05-10T03:48:11.223Z,99755
2023-05-10T03:54:02.530Z,99754
2023-05-10T03:59:55.181Z,99759
2023-05-10T04:05:47.089Z,99750
2023-05-10T04:11:39.402Z,99739
2023-05-10T04:17:32.117Z,99753
2023-05-10T04:23:24.181Z,99751
2023-05-10T04:29:16.301Z,99764
2023-05-10T04:35:09.204Z,99764
2023-05-10T04:41:01.454Z,99766
2023-05-10T04:46:54.326Z,99766
2023-05-10T04:52:46.425Z,99770
2023-05-10T04:58:38.519Z,99781
2023-05-10T05:04:30.996Z,99780
2023-05-10T05:10:23.653Z,99785
2023-05-10T05:16:16.050Z,99788
2023-05-10T05:22:10.527Z,99801
2023-05-10T05:28:02.856Z,99795
2023-05-10T05:33:55.643Z,99802
2023-05-10T05:45:37.832Z,99809
2023-05-10T05:56:07.343Z,99834
2023-05-10T06:05:24.152Z,99837
2023-05-10T06:12:22.993Z,99843
2023-05-10T06:18:18.328Z,99846
2023-05-10T06:24:11.490Z,99837
2023-05-10T06:31:12.735Z,99856
2023-05-10T06:37:05.557Z,99858
2023-05-10T06:42:57.902Z,99864
2023-05-10T06:48:49.527Z,99874
2023-05-10T06:54:44.248Z,99880
2023-05-10T07:00:44.029Z,99884
2023-05-10T07:06:38.302Z,99876
2023-05-10T07:12:31.816Z,99884
2023-05-10T07:31:50.776Z,99889
2023-05-10T07:38:12.538Z,99890
2023-05-10T07:44:18.959Z,99900
2023-05-10T07:50:10.973Z,99898
2023-05-10T07:56:03.802Z,99907
2023-05-10T08:01:55.853Z,99907
2023-05-10T08:07:47.913Z,99901
2023-05-10T08:13:40.849Z,99904
2023-05-10T08:19:34.388Z,99904
2023-05-10T08:25:28.529Z,99899
2023-05-10T08:31:24.544Z,99906
2023-05-10T08:37:19.740Z,99907
2023-05-10T08:43:13.807Z,99913
2023-05-10T08:49:07.938Z,99929
2023-05-10T08:54:59.897Z,99937
2023-05-10T09:00:52.006Z,99953
2023-05-10T09:06:45.826Z,99964
2023-05-10T09:12:37.636Z,99981
2023-05-10T09:18:31.761Z,99973
2023-05-10T09:24:32.333Z,99978
2023-05-10T09:30:25.185Z,99987
2023-05-10T09:36:16.822Z,99987
2023-05-10T09:42:08.337Z,99995
2023-05-10T09:48:01.805Z,99997
2023-05-10T09:53:54.887Z,99995
2023-05-10T09:59:46.861Z,99994
2023-05-10T10:05:39.968Z,99993
2023-05-10T10:11:34.364Z,99993
2023-05-10T10:17:28.103Z,99989
2023-05-10T10:23:21.810Z,99978
2023-05-10T10:29:19.172Z,99986
2023-05-10T10:36:23.396Z,100003
2023-05-10T10:46:56.710Z,100000
2023-05-10T10:52:52.827Z,99987
2023-05-10T11:15:48.754Z,99999
2023-05-10T11:31:50.953Z,100009
2023-05-10T11:37:45.064Z,100009
2023-05-10T11:48:16.405Z,100010
2023-05-10T11:54:06.772Z,100011
2023-05-10T12:17:20.916Z,100016
2023-05-10T12:48:51.767Z,100044
2023-05-10T12:54:56.054Z,100039
2023-05-10T13:00:48.322Z,100043
2023-05-10T13:06:41.764Z,100053
2023-05-10T13:12:33.050Z,100053
2023-05-10T13:18:24.820Z,100049
2023-05-10T13:24:17.209Z,100040
2023-05-10T13:30:09.634Z,100049
2023-05-10T13:36:03.002Z,100044
2023-05-10T13:41:57.667Z,100044
2023-05-10T13:47:50.215Z,100064
2023-05-10T13:59:38.344Z,100055
2023-05-10T14:05:32.259Z,100061
2023-05-10T14:11:26.652Z,100078
2023-05-10T14:18:28.292Z,100071
2023-05-10T14:24:52.902Z,100063
2023-05-10T14:30:46.527Z,100054
2023-05-10T14:36:39.323Z,100050
2023-05-10T14:56:32.213Z,100084
2023-05-10T15:03:29.379Z,100081
2023-05-10T15:09:30.354Z,100094
2023-05-10T15:15:38.383Z,100085
2023-05-10T15:29:10.759Z,100086
2023-05-10T15:36:30.896Z,100082
2023-05-10T15:42:25.372Z,100078
2023-05-10T15:48:16.768Z,100080
2023-05-10T15:54:11.850Z,100092
2023-05-10T16:00:02.983Z,100107
2023-05-10T16:05:55.359Z,100106
2023-05-10T16:11:50.277Z,100114
2023-05-10T16:17:41.313Z,100110
2023-05-10T16:23:34.524Z,100121
2023-05-10T16:29:26.685Z,100114
2023-05-10T16:35:21.305Z,100118
2023-05-10T16:41:12.947Z,100112
2023-05-10T16:47:04.806Z,100110
2023-05-10T16:52:56.460Z,100102
2023-05-10T16:58:48.094Z,100107
2023-05-10T17:04:40.544Z,100107
2023-05-10T17:10:32.461Z,100119
2023-05-10T17:16:24.687Z,100118
2023-05-10T17:22:17.630Z,100125
2023-05-10T17:28:09.417Z,100123
2023-05-10T17:34:02.670Z,100127
2023-05-10T17:39:56.471Z,100137
2023-05-10T17:45:48.657Z,100137
2023-05-10T17:51:41.285Z,100139
2023-05-10T17:57:32.994Z,100139
2023-05-10T18:03:23.451Z,100144
2023-05-10T18:09:16.344Z,100153
2023-05-10T18:15:08.903Z,100152
2023-05-10T18:21:01.457Z,100154
2023-05-10T18:26:53.573Z,100152
2023-05-10T18:32:45.580Z,100154
2023-05-10T18:38:37.028Z,100147
2023-05-10T18:45:35.594Z,100148
2023-05-10T18:51:25.601Z,100148
2023-05-10T18:57:17.616Z,100148
2023-05-10T19:03:11.575Z,100152
2023-05-10T19:09:08.511Z,100161
2023-05-10T19:15:00.134Z,100170
2023-05-10T19:20:55.603Z,100166
2023-05-10T19:26:52.578Z,100180
2023-05-10T19:32:45.220Z,100181
2023-05-10T19:38:36.798Z,100183
2023-05-10T19:44:34.832Z,100184
2023-05-10T19:50:28.629Z,100197
2023-05-10T19:56:21.857Z,100206
2023-05-10T20:02:30.680Z,100201
2023-05-10T20:08:22.257Z,100198
2023-05-10T20:14:18.641Z,100197
2023-05-10T20:20:11.194Z,100214
2023-05-10T20:26:23.614Z,100222
2023-05-10T20:32:16.149Z,100210
2023-05-10T20:38:11.674Z,100221
2023-05-10T20:44:10.584Z,100207
2023-05-10T20:50:06.968Z,100211
2023-05-10T20:56:00.805Z,100214
2023-05-10T21:01:56.169Z,100217
2023-05-10T21:07:49.958Z,100212
2023-05-10T21:19:54.626Z,100210
2023-05-10T21:25:47.301Z,100211
2023-05-10T21:31:45.155Z,100213
2023-05-10T21:37:41.979Z,100216
2023-05-10T21:52:02.873Z,100213
2023-05-10T21:58:05.509Z,100212
2023-05-10T22:04:01.811Z,100210
2023-05-10T22:09:54.912Z,100212
2023-05-10T22:15:48.036Z,100231
2023-05-10T22:21:48.037Z,100231
2023-05-10T22:27:41.703Z,100239
2023-05-10T22:33:43.127Z,100249
2023-05-10T22:44:14.002Z,100246
2023-05-10T22:56:59.979Z,100240
2023-05-10T23:29:35.686Z,100271
2023-05-10T23:35:59.971Z,100270
2023-05-10T23:42:25.837Z,100273
2023-05-10T23:49:09.814Z,100272
2023-05-10T23:55:42.867Z,100260
